sensor_id;sensor_type;location;lat;lon;timestamp;P1;durP1;ratioP1;P2;durP2;ratioP2
22223;SDS011;11281;52.194;21.006;2023-04-03T00:01:36;4.32;;;2.42;;
22223;SDS011;11281;52.194;21.006;2023-04-03T00:05:38;3.92;;;1.88;;
22223;SDS011;11281;52.194;21.006;2023-04-03T00:09:40;3.47;;;1.85;;
22223;SDS011;11281;52.194;21.006;2023-04-03T00:13:41;3.92;;;1.70;;
22223;SDS011;11281;52.194;21.006;2023-04-03T00:17:43;1.58;;;1.48;;
22223;SDS011;11281;52.194;21.006;2023-04-03T00:21:45;4.10;;;2.15;;
22223;SDS011;11281;52.194;21.006;2023-04-03T00:25:47;1.65;;;1.55;;
22223;SDS011;11281;52.194;21.006;2023-04-03T00:29:48;3.78;;;1.63;;
22223;SDS011;11281;52.194;21.006;2023-04-03T00:33:50;2.83;;;1.77;;
22223;SDS011;11281;52.194;21.006;2023-04-03T00:37:51;1.80;;;1.70;;
22223;SDS011;11281;52.194;21.006;2023-04-03T00:41:55;2.00;;;1.52;;
22223;SDS011;11281;52.194;21.006;2023-04-03T00:45:57;4.03;;;1.70;;
22223;SDS011;11281;52.194;21.006;2023-04-03T00:50:00;3.33;;;2.30;;
22223;SDS011;11281;52.194;21.006;2023-04-03T00:54:03;8.20;;;2.20;;
22223;SDS011;11281;52.194;21.006;2023-04-03T00:58:06;3.05;;;1.90;;
22223;SDS011;11281;52.194;21.006;2023-04-03T01:02:09;2.13;;;1.70;;
22223;SDS011;11281;52.194;21.006;2023-04-03T01:06:12;2.78;;;1.50;;
22223;SDS011;11281;52.194;21.006;2023-04-03T01:10:17;4.30;;;1.80;;
22223;SDS011;11281;52.194;21.006;2023-04-03T01:14:21;2.63;;;1.63;;
22223;SDS011;11281;52.194;21.006;2023-04-03T01:18:23;2.10;;;1.90;;
22223;SDS011;11281;52.194;21.006;2023-04-03T01:22:28;2.17;;;1.63;;
22223;SDS011;11281;52.194;21.006;2023-04-03T01:26:37;2.08;;;1.88;;
22223;SDS011;11281;52.194;21.006;2023-04-03T01:35:08;1.73;;;1.63;;
22223;SDS011;11281;52.194;21.006;2023-04-03T01:39:11;1.85;;;1.40;;
22223;SDS011;11281;52.194;21.006;2023-04-03T01:43:12;3.20;;;1.83;;
22223;SDS011;11281;52.194;21.006;2023-04-03T01:47:14;2.22;;;1.90;;
22223;SDS011;11281;52.194;21.006;2023-04-03T01:51:16;1.73;;;1.70;;
22223;SDS011;11281;52.194;21.006;2023-04-03T01:55:18;2.67;;;1.77;;
22223;SDS011;11281;52.194;21.006;2023-04-03T01:59:19;3.50;;;1.70;;
22223;SDS011;11281;52.194;21.006;2023-04-03T02:03:21;2.63;;;1.60;;
22223;SDS011;11281;52.194;21.006;2023-04-03T02:07:23;1.80;;;1.70;;
22223;SDS011;11281;52.194;21.006;2023-04-03T02:11:25;1.60;;;1.50;;
22223;SDS011;11281;52.194;21.006;2023-04-03T02:15:27;1.85;;;1.75;;
22223;SDS011;11281;52.194;21.006;2023-04-03T02:19:29;1.90;;;1.80;;
22223;SDS011;11281;52.194;21.006;2023-04-03T02:23:32;1.48;;;1.38;;
22223;SDS011;11281;52.194;21.006;2023-04-03T02:27:34;1.85;;;1.75;;
22223;SDS011;11281;52.194;21.006;2023-04-03T02:31:36;1.73;;;1.63;;
22223;SDS011;11281;52.194;21.006;2023-04-03T02:35:38;1.98;;;1.88;;
22223;SDS011;11281;52.194;21.006;2023-04-03T02:39:40;1.70;;;1.60;;
22223;SDS011;11281;52.194;21.006;2023-04-03T02:43:42;2.50;;;1.55;;
22223;SDS011;11281;52.194;21.006;2023-04-03T02:47:43;2.67;;;1.90;;
22223;SDS011;11281;52.194;21.006;2023-04-03T02:51:45;1.80;;;1.70;;
22223;SDS011;11281;52.194;21.006;2023-04-03T02:55:46;4.18;;;2.20;;
22223;SDS011;11281;52.194;21.006;2023-04-03T02:59:48;2.15;;;1.98;;
22223;SDS011;11281;52.194;21.006;2023-04-03T03:03:50;1.70;;;1.30;;
22223;SDS011;11281;52.194;21.006;2023-04-03T03:07:52;2.72;;;1.52;;
22223;SDS011;11281;52.194;21.006;2023-04-03T03:11:54;3.08;;;1.58;;
22223;SDS011;11281;52.194;21.006;2023-04-03T03:15:57;1.45;;;1.35;;
22223;SDS011;11281;52.194;21.006;2023-04-03T03:19:59;1.75;;;1.30;;
22223;SDS011;11281;52.194;21.006;2023-04-03T03:24:00;4.28;;;1.70;;
22223;SDS011;11281;52.194;21.006;2023-04-03T03:28:02;3.83;;;1.80;;
22223;SDS011;11281;52.194;21.006;2023-04-03T03:32:04;2.08;;;1.88;;
22223;SDS011;11281;52.194;21.006;2023-04-03T03:36:06;2.10;;;1.90;;
22223;SDS011;11281;52.194;21.006;2023-04-03T03:40:07;3.85;;;1.52;;
22223;SDS011;11281;52.194;21.006;2023-04-03T03:44:10;2.28;;;2.05;;
22223;SDS011;11281;52.194;21.006;2023-04-03T03:48:11;2.13;;;1.67;;
22223;SDS011;11281;52.194;21.006;2023-04-03T03:52:13;1.73;;;1.63;;
22223;SDS011;11281;52.194;21.006;2023-04-03T03:56:15;1.55;;;1.45;;
22223;SDS011;11281;52.194;21.006;2023-04-03T04:00:17;1.52;;;1.42;;
22223;SDS011;11281;52.194;21.006;2023-04-03T04:04:19;4.22;;;1.65;;
22223;SDS011;11281;52.194;21.006;2023-04-03T04:08:21;4.03;;;2.05;;
22223;SDS011;11281;52.194;21.006;2023-04-03T04:12:24;1.67;;;1.45;;
22223;SDS011;11281;52.194;21.006;2023-04-03T04:16:25;1.80;;;1.70;;
22223;SDS011;11281;52.194;21.006;2023-04-03T04:20:27;4.68;;;2.03;;
22223;SDS011;11281;52.194;21.006;2023-04-03T04:24:29;2.17;;;1.98;;
22223;SDS011;11281;52.194;21.006;2023-04-03T04:28:31;1.35;;;1.23;;
22223;SDS011;11281;52.194;21.006;2023-04-03T04:32:33;3.13;;;1.83;;
22223;SDS011;11281;52.194;21.006;2023-04-03T04:36:34;2.67;;;2.22;;
22223;SDS011;11281;52.194;21.006;2023-04-03T04:40:36;2.03;;;1.23;;
22223;SDS011;11281;52.194;21.006;2023-04-03T04:44:39;1.63;;;1.52;;
22223;SDS011;11281;52.194;21.006;2023-04-03T04:48:41;1.52;;;1.42;;
22223;SDS011;11281;52.194;21.006;2023-04-03T04:52:42;5.68;;;1.65;;
22223;SDS011;11281;52.194;21.006;2023-04-03T04:56:44;2.50;;;1.50;;
22223;SDS011;11281;52.194;21.006;2023-04-03T05:00:46;2.80;;;1.65;;
22223;SDS011;11281;52.194;21.006;2023-04-03T05:04:48;1.65;;;1.55;;
22223;SDS011;11281;52.194;21.006;2023-04-03T05:08:50;1.92;;;1.73;;
22223;SDS011;11281;52.194;21.006;2023-04-03T05:12:52;2.33;;;1.60;;
22223;SDS011;11281;52.194;21.006;2023-04-03T05:16:54;3.47;;;2.17;;
22223;SDS011;11281;52.194;21.006;2023-04-03T05:20:55;2.25;;;2.15;;
22223;SDS011;11281;52.194;21.006;2023-04-03T05:24:56;1.80;;;1.70;;
22223;SDS011;11281;52.194;21.006;2023-04-03T05:28:58;3.17;;;1.70;;
22223;SDS011;11281;52.194;21.006;2023-04-03T05:32:59;1.83;;;1.73;;
22223;SDS011;11281;52.194;21.006;2023-04-03T05:37:01;1.70;;;1.60;;
22223;SDS011;11281;52.194;21.006;2023-04-03T05:41:05;2.20;;;1.90;;
22223;SDS011;11281;52.194;21.006;2023-04-03T05:45:07;2.50;;;1.90;;
22223;SDS011;11281;52.194;21.006;2023-04-03T05:49:09;2.13;;;1.92;;
22223;SDS011;11281;52.194;21.006;2023-04-03T05:53:15;1.85;;;1.73;;
22223;SDS011;11281;52.194;21.006;2023-04-03T05:57:22;1.92;;;1.80;;
22223;SDS011;11281;52.194;21.006;2023-04-03T06:01:24;1.60;;;1.50;;
22223;SDS011;11281;52.194;21.006;2023-04-03T06:05:25;1.85;;;1.75;;
22223;SDS011;11281;52.194;21.006;2023-04-03T06:09:27;1.95;;;1.60;;
22223;SDS011;11281;52.194;21.006;2023-04-03T06:13:29;2.03;;;1.90;;
22223;SDS011;11281;52.194;21.006;2023-04-03T06:17:32;3.67;;;1.73;;
22223;SDS011;11281;52.194;21.006;2023-04-03T06:21:34;4.32;;;1.88;;
22223;SDS011;11281;52.194;21.006;2023-04-03T06:25:36;1.65;;;1.55;;
22223;SDS011;11281;52.194;21.006;2023-04-03T06:29:38;2.50;;;1.45;;
22223;SDS011;11281;52.194;21.006;2023-04-03T06:33:39;2.45;;;1.60;;
22223;SDS011;11281;52.194;21.006;2023-04-03T06:37:41;1.40;;;1.40;;
22223;SDS011;11281;52.194;21.006;2023-04-03T06:41:43;1.50;;;1.40;;
22223;SDS011;11281;52.194;21.006;2023-04-03T06:45:45;3.47;;;1.50;;
22223;SDS011;11281;52.194;21.006;2023-04-03T06:49:47;1.65;;;1.55;;
22223;SDS011;11281;52.194;21.006;2023-04-03T06:53:49;6.70;;;1.90;;
22223;SDS011;11281;52.194;21.006;2023-04-03T06:57:53;3.95;;;1.83;;
22223;SDS011;11281;52.194;21.006;2023-04-03T07:01:55;3.90;;;1.77;;
22223;SDS011;11281;52.194;21.006;2023-04-03T07:05:56;1.50;;;1.40;;
22223;SDS011;11281;52.194;21.006;2023-04-03T07:09:58;2.03;;;1.85;;
22223;SDS011;11281;52.194;21.006;2023-04-03T07:14:00;2.40;;;1.50;;
22223;SDS011;11281;52.194;21.006;2023-04-03T07:18:02;3.15;;;1.67;;
22223;SDS011;11281;52.194;21.006;2023-04-03T07:22:05;3.70;;;2.65;;
22223;SDS011;11281;52.194;21.006;2023-04-03T07:26:07;5.43;;;2.50;;
22223;SDS011;11281;52.194;21.006;2023-04-03T07:30:10;2.08;;;1.83;;
22223;SDS011;11281;52.194;21.006;2023-04-03T07:34:12;3.33;;;1.73;;
22223;SDS011;11281;52.194;21.006;2023-04-03T07:38:14;5.15;;;1.90;;
22223;SDS011;11281;52.194;21.006;2023-04-03T07:42:16;4.03;;;1.60;;
22223;SDS011;11281;52.194;21.006;2023-04-03T07:46:18;2.00;;;1.55;;
22223;SDS011;11281;52.194;21.006;2023-04-03T07:50:19;5.13;;;1.85;;
22223;SDS011;11281;52.194;21.006;2023-04-03T07:54:21;3.22;;;1.80;;
22223;SDS011;11281;52.194;21.006;2023-04-03T07:58:23;3.25;;;1.70;;
22223;SDS011;11281;52.194;21.006;2023-04-03T08:02:26;2.90;;;1.80;;
22223;SDS011;11281;52.194;21.006;2023-04-03T08:06:28;2.80;;;1.52;;
22223;SDS011;11281;52.194;21.006;2023-04-03T08:10:35;3.72;;;1.63;;
22223;SDS011;11281;52.194;21.006;2023-04-03T08:14:37;2.58;;;1.77;;
22223;SDS011;11281;52.194;21.006;2023-04-03T08:18:38;1.65;;;1.55;;
22223;SDS011;11281;52.194;21.006;2023-04-03T08:22:41;3.08;;;1.80;;
22223;SDS011;11281;52.194;21.006;2023-04-03T08:26:42;3.45;;;1.70;;
22223;SDS011;11281;52.194;21.006;2023-04-03T08:30:44;1.48;;;1.38;;
22223;SDS011;11281;52.194;21.006;2023-04-03T08:34:46;3.50;;;1.40;;
22223;SDS011;11281;52.194;21.006;2023-04-03T08:38:49;1.58;;;1.45;;
22223;SDS011;11281;52.194;21.006;2023-04-03T08:43:37;2.03;;;1.92;;
22223;SDS011;11281;52.194;21.006;2023-04-03T08:48:00;2.58;;;1.38;;
22223;SDS011;11281;52.194;21.006;2023-04-03T08:52:10;2.25;;;1.75;;
22223;SDS011;11281;52.194;21.006;2023-04-03T08:56:16;4.68;;;1.60;;
22223;SDS011;11281;52.194;21.006;2023-04-03T09:00:21;1.50;;;1.33;;
22223;SDS011;11281;52.194;21.006;2023-04-03T09:04:25;1.48;;;1.38;;
22223;SDS011;11281;52.194;21.006;2023-04-03T09:17:33;3.20;;;1.80;;
22223;SDS011;11281;52.194;21.006;2023-04-03T09:22:16;1.17;;;1.15;;
22223;SDS011;11281;52.194;21.006;2023-04-03T09:26:36;1.40;;;1.30;;
22223;SDS011;11281;52.194;21.006;2023-04-03T09:30:53;1.75;;;1.45;;
22223;SDS011;11281;52.194;21.006;2023-04-03T09:35:06;1.75;;;1.40;;
22223;SDS011;11281;52.194;21.006;2023-04-03T09:39:28;1.58;;;1.48;;
22223;SDS011;11281;52.194;21.006;2023-04-03T09:43:31;1.55;;;1.45;;
22223;SDS011;11281;52.194;21.006;2023-04-03T09:47:35;1.48;;;1.38;;
22223;SDS011;11281;52.194;21.006;2023-04-03T09:51:39;1.92;;;1.40;;
22223;SDS011;11281;52.194;21.006;2023-04-03T09:55:42;2.03;;;1.23;;
22223;SDS011;11281;52.194;21.006;2023-04-03T09:59:47;1.05;;;1.05;;
22223;SDS011;11281;52.194;21.006;2023-04-03T10:08:21;2.10;;;1.38;;
22223;SDS011;11281;52.194;21.006;2023-04-03T10:12:27;1.42;;;1.33;;
22223;SDS011;11281;52.194;21.006;2023-04-03T10:16:35;1.25;;;1.20;;
22223;SDS011;11281;52.194;21.006;2023-04-03T10:20:43;3.88;;;1.42;;
22223;SDS011;11281;52.194;21.006;2023-04-03T10:37:57;1.95;;;1.85;;
22223;SDS011;11281;52.194;21.006;2023-04-03T10:42:34;1.90;;;1.38;;
22223;SDS011;11281;52.194;21.006;2023-04-03T10:47:00;1.20;;;1.10;;
22223;SDS011;11281;52.194;21.006;2023-04-03T10:52:29;1.38;;;1.38;;
22223;SDS011;11281;52.194;21.006;2023-04-03T11:00:52;1.40;;;1.30;;
22223;SDS011;11281;52.194;21.006;2023-04-03T11:05:03;2.45;;;1.20;;
22223;SDS011;11281;52.194;21.006;2023-04-03T11:17:48;1.30;;;1.20;;
22223;SDS011;11281;52.194;21.006;2023-04-03T11:21:57;3.60;;;1.45;;
22223;SDS011;11281;52.194;21.006;2023-04-03T11:26:17;2.42;;;1.45;;
22223;SDS011;11281;52.194;21.006;2023-04-03T11:30:28;2.50;;;1.85;;
22223;SDS011;11281;52.194;21.006;2023-04-03T11:35:04;0.82;;;0.82;;
22223;SDS011;11281;52.194;21.006;2023-04-03T11:39:30;1.67;;;1.30;;
22223;SDS011;11281;52.194;21.006;2023-04-03T11:43:33;5.63;;;1.90;;
22223;SDS011;11281;52.194;21.006;2023-04-03T11:47:46;1.70;;;1.50;;
22223;SDS011;11281;52.194;21.006;2023-04-03T11:51:50;1.30;;;1.27;;
22223;SDS011;11281;52.194;21.006;2023-04-03T11:55:53;4.47;;;1.70;;
22223;SDS011;11281;52.194;21.006;2023-04-03T12:04:52;1.88;;;1.30;;
22223;SDS011;11281;52.194;21.006;2023-04-03T12:09:30;2.85;;;1.70;;
22223;SDS011;11281;52.194;21.006;2023-04-03T12:17:57;1.50;;;1.30;;
22223;SDS011;11281;52.194;21.006;2023-04-03T12:26:02;2.42;;;1.38;;
22223;SDS011;11281;52.194;21.006;2023-04-03T12:30:27;1.70;;;1.30;;
22223;SDS011;11281;52.194;21.006;2023-04-03T12:48:18;3.20;;;1.80;;
22223;SDS011;11281;52.194;21.006;2023-04-03T12:52:32;1.88;;;1.55;;
22223;SDS011;11281;52.194;21.006;2023-04-03T12:57:08;1.50;;;1.40;;
22223;SDS011;11281;52.194;21.006;2023-04-03T13:01:17;1.33;;;1.23;;
22223;SDS011;11281;52.194;21.006;2023-04-03T13:05:25;1.27;;;1.08;;
22223;SDS011;11281;52.194;21.006;2023-04-03T13:09:28;1.30;;;1.20;;
22223;SDS011;11281;52.194;21.006;2023-04-03T13:13:33;2.25;;;1.30;;
22223;SDS011;11281;52.194;21.006;2023-04-03T13:17:37;2.92;;;2.17;;
22223;SDS011;11281;52.194;21.006;2023-04-03T13:21:41;2.10;;;1.63;;
22223;SDS011;11281;52.194;21.006;2023-04-03T13:25:44;2.78;;;1.80;;
22223;SDS011;11281;52.194;21.006;2023-04-03T13:29:51;5.72;;;1.85;;
22223;SDS011;11281;52.194;21.006;2023-04-03T13:42:25;3.33;;;1.80;;
22223;SDS011;11281;52.194;21.006;2023-04-03T13:46:30;5.10;;;1.90;;
22223;SDS011;11281;52.194;21.006;2023-04-03T13:50:32;2.22;;;1.70;;
22223;SDS011;11281;52.194;21.006;2023-04-03T13:54:35;1.85;;;1.73;;
22223;SDS011;11281;52.194;21.006;2023-04-03T13:58:39;2.67;;;1.73;;
22223;SDS011;11281;52.194;21.006;2023-04-03T14:02:56;2.35;;;1.58;;
22223;SDS011;11281;52.194;21.006;2023-04-03T14:07:00;2.08;;;1.70;;
22223;SDS011;11281;52.194;21.006;2023-04-03T14:11:01;1.55;;;1.45;;
22223;SDS011;11281;52.194;21.006;2023-04-03T14:15:04;0.93;;;0.93;;
22223;SDS011;11281;52.194;21.006;2023-04-03T14:19:30;1.40;;;1.30;;
22223;SDS011;11281;52.194;21.006;2023-04-03T14:23:36;2.22;;;1.90;;
22223;SDS011;11281;52.194;21.006;2023-04-03T14:27:39;5.80;;;2.33;;
22223;SDS011;11281;52.194;21.006;2023-04-03T14:31:45;3.38;;;2.33;;
22223;SDS011;11281;52.194;21.006;2023-04-03T14:35:48;3.08;;;2.03;;
22223;SDS011;11281;52.194;21.006;2023-04-03T14:39:50;1.50;;;1.40;;
22223;SDS011;11281;52.194;21.006;2023-04-03T14:43:54;3.85;;;2.45;;
22223;SDS011;11281;52.194;21.006;2023-04-03T14:47:56;1.67;;;1.52;;
22223;SDS011;11281;52.194;21.006;2023-04-03T14:51:58;3.38;;;2.40;;
22223;SDS011;11281;52.194;21.006;2023-04-03T14:55:59;2.38;;;1.80;;
22223;SDS011;11281;52.194;21.006;2023-04-03T15:00:01;8.23;;;2.72;;
22223;SDS011;11281;52.194;21.006;2023-04-03T15:04:12;4.07;;;2.10;;
22223;SDS011;11281;52.194;21.006;2023-04-03T15:08:21;2.03;;;1.60;;
22223;SDS011;11281;52.194;21.006;2023-04-03T15:12:30;3.13;;;2.08;;
22223;SDS011;11281;52.194;21.006;2023-04-03T15:16:31;3.25;;;2.08;;
22223;SDS011;11281;52.194;21.006;2023-04-03T15:20:33;6.38;;;3.00;;
22223;SDS011;11281;52.194;21.006;2023-04-03T15:24:36;5.60;;;3.20;;
22223;SDS011;11281;52.194;21.006;2023-04-03T15:28:38;4.13;;;2.30;;
22223;SDS011;11281;52.194;21.006;2023-04-03T15:32:41;2.78;;;2.33;;
22223;SDS011;11281;52.194;21.006;2023-04-03T15:36:43;3.15;;;1.55;;
22223;SDS011;11281;52.194;21.006;2023-04-03T15:40:45;3.20;;;1.80;;
22223;SDS011;11281;52.194;21.006;2023-04-03T15:44:47;2.22;;;1.73;;
22223;SDS011;11281;52.194;21.006;2023-04-03T15:48:49;4.38;;;2.22;;
22223;SDS011;11281;52.194;21.006;2023-04-03T15:52:52;2.40;;;1.73;;
22223;SDS011;11281;52.194;21.006;2023-04-03T15:56:55;1.95;;;1.73;;
22223;SDS011;11281;52.194;21.006;2023-04-03T16:00:58;4.68;;;2.72;;
22223;SDS011;11281;52.194;21.006;2023-04-03T16:04:59;3.83;;;2.83;;
22223;SDS011;11281;52.194;21.006;2023-04-03T16:09:01;5.65;;;2.80;;
22223;SDS011;11281;52.194;21.006;2023-04-03T16:13:03;10.75;;;4.63;;
22223;SDS011;11281;52.194;21.006;2023-04-03T16:17:05;7.07;;;3.78;;
22223;SDS011;11281;52.194;21.006;2023-04-03T16:21:07;3.35;;;2.80;;
22223;SDS011;11281;52.194;21.006;2023-04-03T16:25:09;4.97;;;3.22;;
22223;SDS011;11281;52.194;21.006;2023-04-03T16:29:12;5.90;;;2.95;;
22223;SDS011;11281;52.194;21.006;2023-04-03T16:33:13;5.95;;;2.92;;
22223;SDS011;11281;52.194;21.006;2023-04-03T16:37:15;3.67;;;2.50;;
22223;SDS011;11281;52.194;21.006;2023-04-03T16:41:17;3.53;;;2.60;;
22223;SDS011;11281;52.194;21.006;2023-04-03T16:45:19;6.55;;;3.80;;
22223;SDS011;11281;52.194;21.006;2023-04-03T16:49:20;11.00;;;5.05;;
22223;SDS011;11281;52.194;21.006;2023-04-03T16:53:22;6.88;;;3.17;;
22223;SDS011;11281;52.194;21.006;2023-04-03T16:57:24;5.00;;;3.30;;
22223;SDS011;11281;52.194;21.006;2023-04-03T17:01:26;5.18;;;2.80;;
22223;SDS011;11281;52.194;21.006;2023-04-03T17:05:28;7.00;;;3.10;;
22223;SDS011;11281;52.194;21.006;2023-04-03T17:09:30;2.15;;;2.05;;
22223;SDS011;11281;52.194;21.006;2023-04-03T17:13:31;6.22;;;3.17;;
22223;SDS011;11281;52.194;21.006;2023-04-03T17:17:34;3.72;;;2.53;;
22223;SDS011;11281;52.194;21.006;2023-04-03T17:21:36;4.68;;;2.40;;
22223;SDS011;11281;52.194;21.006;2023-04-03T17:25:38;4.53;;;2.75;;
22223;SDS011;11281;52.194;21.006;2023-04-03T17:29:40;4.13;;;2.58;;
22223;SDS011;11281;52.194;21.006;2023-04-03T17:33:41;4.75;;;2.80;;
22223;SDS011;11281;52.194;21.006;2023-04-03T17:37:43;7.28;;;4.05;;
22223;SDS011;11281;52.194;21.006;2023-04-03T17:41:45;11.95;;;5.65;;
22223;SDS011;11281;52.194;21.006;2023-04-03T17:45:47;9.35;;;5.28;;
22223;SDS011;11281;52.194;21.006;2023-04-03T17:49:49;8.77;;;5.25;;
22223;SDS011;11281;52.194;21.006;2023-04-03T17:53:52;9.60;;;4.45;;
22223;SDS011;11281;52.194;21.006;2023-04-03T17:57:54;7.38;;;3.95;;
22223;SDS011;11281;52.194;21.006;2023-04-03T18:01:55;5.18;;;3.00;;
22223;SDS011;11281;52.194;21.006;2023-04-03T18:05:57;3.28;;;2.15;;
22223;SDS011;11281;52.194;21.006;2023-04-03T18:10:03;5.25;;;2.92;;
22223;SDS011;11281;52.194;21.006;2023-04-03T18:14:08;4.25;;;3.08;;
22223;SDS011;11281;52.194;21.006;2023-04-03T18:18:10;7.55;;;3.95;;
22223;SDS011;11281;52.194;21.006;2023-04-03T18:22:13;4.72;;;2.97;;
22223;SDS011;11281;52.194;21.006;2023-04-03T18:26:17;7.63;;;4.57;;
22223;SDS011;11281;52.194;21.006;2023-04-03T18:30:19;6.22;;;4.82;;
22223;SDS011;11281;52.194;21.006;2023-04-03T18:34:23;5.75;;;3.70;;
22223;SDS011;11281;52.194;21.006;2023-04-03T18:38:24;4.60;;;3.03;;
22223;SDS011;11281;52.194;21.006;2023-04-03T18:42:26;10.00;;;4.55;;
22223;SDS011;11281;52.194;21.006;2023-04-03T18:46:28;7.93;;;4.22;;
22223;SDS011;11281;52.194;21.006;2023-04-03T18:50:30;5.53;;;3.92;;
22223;SDS011;11281;52.194;21.006;2023-04-03T18:54:32;6.65;;;4.03;;
22223;SDS011;11281;52.194;21.006;2023-04-03T18:58:34;13.98;;;5.10;;
22223;SDS011;11281;52.194;21.006;2023-04-03T19:02:36;9.95;;;5.70;;
22223;SDS011;11281;52.194;21.006;2023-04-03T19:06:38;10.18;;;5.15;;
22223;SDS011;11281;52.194;21.006;2023-04-03T19:10:41;13.05;;;6.18;;
22223;SDS011;11281;52.194;21.006;2023-04-03T19:14:42;7.45;;;4.32;;
22223;SDS011;11281;52.194;21.006;2023-04-03T19:18:44;9.63;;;4.88;;
22223;SDS011;11281;52.194;21.006;2023-04-03T19:22:46;10.20;;;5.53;;
22223;SDS011;11281;52.194;21.006;2023-04-03T19:26:48;9.63;;;4.97;;
22223;SDS011;11281;52.194;21.006;2023-04-03T19:30:50;9.20;;;4.60;;
22223;SDS011;11281;52.194;21.006;2023-04-03T19:34:52;8.18;;;4.55;;
22223;SDS011;11281;52.194;21.006;2023-04-03T19:38:57;7.00;;;4.45;;
22223;SDS011;11281;52.194;21.006;2023-04-03T19:42:58;8.02;;;4.30;;
22223;SDS011;11281;52.194;21.006;2023-04-03T19:47:00;8.80;;;4.00;;
22223;SDS011;11281;52.194;21.006;2023-04-03T19:51:03;7.43;;;4.28;;
22223;SDS011;11281;52.194;21.006;2023-04-03T19:55:05;6.07;;;3.78;;
22223;SDS011;11281;52.194;21.006;2023-04-03T19:59:07;10.38;;;4.28;;
22223;SDS011;11281;52.194;21.006;2023-04-03T20:03:09;7.93;;;4.13;;
22223;SDS011;11281;52.194;21.006;2023-04-03T20:07:11;8.68;;;4.28;;
22223;SDS011;11281;52.194;21.006;2023-04-03T20:11:13;8.32;;;3.97;;
22223;SDS011;11281;52.194;21.006;2023-04-03T20:15:15;5.85;;;3.75;;
22223;SDS011;11281;52.194;21.006;2023-04-03T20:19:17;11.30;;;4.40;;
22223;SDS011;11281;52.194;21.006;2023-04-03T20:23:19;6.97;;;4.10;;
22223;SDS011;11281;52.194;21.006;2023-04-03T20:27:21;12.45;;;4.55;;
22223;SDS011;11281;52.194;21.006;2023-04-03T20:31:23;13.13;;;4.95;;
22223;SDS011;11281;52.194;21.006;2023-04-03T20:35:27;13.35;;;5.72;;
22223;SDS011;11281;52.194;21.006;2023-04-03T20:39:30;13.45;;;7.20;;
22223;SDS011;11281;52.194;21.006;2023-04-03T20:43:32;13.40;;;5.80;;
22223;SDS011;11281;52.194;21.006;2023-04-03T20:47:34;11.60;;;5.68;;
22223;SDS011;11281;52.194;21.006;2023-04-03T20:51:36;14.25;;;5.25;;
22223;SDS011;11281;52.194;21.006;2023-04-03T20:55:38;9.32;;;3.92;;
22223;SDS011;11281;52.194;21.006;2023-04-03T20:59:39;11.05;;;5.32;;
22223;SDS011;11281;52.194;21.006;2023-04-03T21:03:41;16.58;;;4.70;;
22223;SDS011;11281;52.194;21.006;2023-04-03T21:22:08;6.78;;;3.25;;
22223;SDS011;11281;52.194;21.006;2023-04-03T21:26:10;5.20;;;3.53;;
22223;SDS011;11281;52.194;21.006;2023-04-03T21:30:15;4.93;;;3.22;;
22223;SDS011;11281;52.194;21.006;2023-04-03T21:34:17;5.63;;;3.47;;
22223;SDS011;11281;52.194;21.006;2023-04-03T21:38:21;4.55;;;2.97;;
22223;SDS011;11281;52.194;21.006;2023-04-03T21:42:22;6.72;;;3.45;;
22223;SDS011;11281;52.194;21.006;2023-04-03T21:46:27;5.70;;;2.60;;
22223;SDS011;11281;52.194;21.006;2023-04-03T21:50:28;6.13;;;3.38;;
22223;SDS011;11281;52.194;21.006;2023-04-03T21:54:30;5.05;;;3.60;;
22223;SDS011;11281;52.194;21.006;2023-04-03T21:58:32;3.72;;;2.67;;
22223;SDS011;11281;52.194;21.006;2023-04-03T22:02:37;9.77;;;3.97;;
22223;SDS011;11281;52.194;21.006;2023-04-03T22:06:40;4.97;;;2.63;;
22223;SDS011;11281;52.194;21.006;2023-04-03T22:10:43;5.47;;;3.85;;
22223;SDS011;11281;52.194;21.006;2023-04-03T22:14:44;4.57;;;2.58;;
22223;SDS011;11281;52.194;21.006;2023-04-03T22:18:47;2.90;;;2.20;;
22223;SDS011;11281;52.194;21.006;2023-04-03T22:22:51;5.60;;;3.00;;
22223;SDS011;11281;52.194;21.006;2023-04-03T22:26:52;4.32;;;2.40;;
22223;SDS011;11281;52.194;21.006;2023-04-03T22:30:54;3.00;;;2.67;;
22223;SDS011;11281;52.194;21.006;2023-04-03T22:34:56;7.07;;;2.85;;
22223;SDS011;11281;52.194;21.006;2023-04-03T22:38:59;2.88;;;2.60;;
22223;SDS011;11281;52.194;21.006;2023-04-03T22:43:02;4.60;;;2.97;;
22223;SDS011;11281;52.194;21.006;2023-04-03T22:47:04;6.72;;;2.97;;
22223;SDS011;11281;52.194;21.006;2023-04-03T22:51:05;6.07;;;3.17;;
22223;SDS011;11281;52.194;21.006;2023-04-03T22:55:08;5.50;;;2.60;;
22223;SDS011;11281;52.194;21.006;2023-04-03T22:59:12;3.47;;;2.80;;
22223;SDS011;11281;52.194;21.006;2023-04-03T23:03:13;4.63;;;2.63;;
22223;SDS011;11281;52.194;21.006;2023-04-03T23:07:15;8.48;;;2.42;;
22223;SDS011;11281;52.194;21.006;2023-04-03T23:11:19;9.35;;;2.70;;
22223;SDS011;11281;52.194;21.006;2023-04-03T23:15:21;5.00;;;2.75;;
22223;SDS011;11281;52.194;21.006;2023-04-03T23:19:23;5.57;;;2.80;;
22223;SDS011;11281;52.194;21.006;2023-04-03T23:23:25;7.90;;;2.50;;
22223;SDS011;11281;52.194;21.006;2023-04-03T23:27:27;3.65;;;2.78;;
22223;SDS011;11281;52.194;21.006;2023-04-03T23:31:28;3.28;;;2.55;;
22223;SDS011;11281;52.194;21.006;2023-04-03T23:35:30;5.50;;;2.85;;
22223;SDS011;11281;52.194;21.006;2023-04-03T23:39:32;3.75;;;2.60;;
22223;SDS011;11281;52.194;21.006;2023-04-03T23:43:34;4.40;;;2.97;;
22223;SDS011;11281;52.194;21.006;2023-04-03T23:47:36;7.80;;;3.33;;
22223;SDS011;11281;52.194;21.006;2023-04-03T23:51:40;5.03;;;2.60;;
22223;SDS011;11281;52.194;21.006;2023-04-03T23:55:41;4.57;;;3.13;;
22223;SDS011;11281;52.194;21.006;2023-04-03T23:59:44;4.13;;;3.33;;
